Terminal Aerodrome Forecast
Issued by NWS Charleston, WV

Current Version | Previous Version | Text Only | Print | Product List | Glossary Off
Versions: 1 2 3 4 5 6 7 8 9 10 11 12 13 14 15 16 17 18 19 20 21

000
FTUS41 KRLX 221721
TAFHTS
TAF
KHTS 221721Z 2218/2318 25008KT P6SM SKC
     FM222000 26009KT P6SM SCT025
     FM230000 25005KT P6SM SCT045
     FM231000 00000KT P6SM SCT150
     FM231200 00000KT P6SM SCT030
     FM231400 VRB03KT P6SM SCT140=

USA.gov is the U.S. government's official web portal to all federal, state and local government web resources and services.